sensor_id;sensor_type;location;lat;lon;timestamp;P1;durP1;ratioP1;P2;durP2;ratioP2
53108;SDS011;39007;53.090;6.074;2023-06-14T00:01:58;9.10;;;2.10;;
53108;SDS011;39007;53.090;6.074;2023-06-14T00:04:24;7.82;;;2.40;;
53108;SDS011;39007;53.090;6.074;2023-06-14T00:06:50;11.00;;;2.25;;
53108;SDS011;39007;53.090;6.074;2023-06-14T00:09:17;9.90;;;2.25;;
53108;SDS011;39007;53.090;6.074;2023-06-14T00:11:44;7.55;;;2.40;;
53108;SDS011;39007;53.090;6.074;2023-06-14T00:14:10;8.80;;;2.45;;
53108;SDS011;39007;53.090;6.074;2023-06-14T00:16:36;6.28;;;2.25;;
53108;SDS011;39007;53.090;6.074;2023-06-14T00:19:04;9.55;;;2.55;;
53108;SDS011;39007;53.090;6.074;2023-06-14T00:21:30;7.97;;;2.53;;
53108;SDS011;39007;53.090;6.074;2023-06-14T00:23:57;6.75;;;2.40;;
53108;SDS011;39007;53.090;6.074;2023-06-14T00:26:23;5.80;;;2.28;;
53108;SDS011;39007;53.090;6.074;2023-06-14T00:28:51;5.65;;;2.30;;
53108;SDS011;39007;53.090;6.074;2023-06-14T00:31:17;8.27;;;2.22;;
53108;SDS011;39007;53.090;6.074;2023-06-14T00:33:43;6.60;;;2.10;;
53108;SDS011;39007;53.090;6.074;2023-06-14T00:36:10;4.28;;;2.10;;
53108;SDS011;39007;53.090;6.074;2023-06-14T00:38:36;6.60;;;2.40;;
53108;SDS011;39007;53.090;6.074;2023-06-14T00:41:02;6.50;;;2.22;;
53108;SDS011;39007;53.090;6.074;2023-06-14T00:43:29;10.23;;;2.45;;
53108;SDS011;39007;53.090;6.074;2023-06-14T00:45:55;5.60;;;2.30;;
53108;SDS011;39007;53.090;6.074;2023-06-14T00:48:21;4.95;;;2.25;;
53108;SDS011;39007;53.090;6.074;2023-06-14T00:50:47;9.85;;;2.40;;
53108;SDS011;39007;53.090;6.074;2023-06-14T00:53:15;8.23;;;2.30;;
53108;SDS011;39007;53.090;6.074;2023-06-14T00:55:42;6.95;;;2.45;;
53108;SDS011;39007;53.090;6.074;2023-06-14T00:58:09;7.43;;;2.30;;
53108;SDS011;39007;53.090;6.074;2023-06-14T01:00:35;6.82;;;2.45;;
53108;SDS011;39007;53.090;6.074;2023-06-14T01:03:01;11.48;;;2.28;;
53108;SDS011;39007;53.090;6.074;2023-06-14T01:05:28;8.13;;;2.30;;
53108;SDS011;39007;53.090;6.074;2023-06-14T01:08:17;9.88;;;2.65;;
53108;SDS011;39007;53.090;6.074;2023-06-14T01:10:56;9.40;;;2.42;;
53108;SDS011;39007;53.090;6.074;2023-06-14T01:15:55;5.85;;;2.30;;
53108;SDS011;39007;53.090;6.074;2023-06-14T01:18:22;6.53;;;2.35;;
53108;SDS011;39007;53.090;6.074;2023-06-14T01:20:51;7.63;;;2.30;;
53108;SDS011;39007;53.090;6.074;2023-06-14T01:23:20;6.90;;;2.38;;
53108;SDS011;39007;53.090;6.074;2023-06-14T01:25:47;6.32;;;2.22;;
53108;SDS011;39007;53.090;6.074;2023-06-14T01:28:18;7.22;;;2.20;;
53108;SDS011;39007;53.090;6.074;2023-06-14T01:30:46;7.43;;;2.35;;
53108;SDS011;39007;53.090;6.074;2023-06-14T01:33:13;8.55;;;2.33;;
53108;SDS011;39007;53.090;6.074;2023-06-14T01:35:46;7.20;;;2.28;;
53108;SDS011;39007;53.090;6.074;2023-06-14T01:38:13;5.68;;;2.25;;
53108;SDS011;39007;53.090;6.074;2023-06-14T01:40:40;4.88;;;2.28;;
53108;SDS011;39007;53.090;6.074;2023-06-14T01:43:06;5.28;;;2.08;;
53108;SDS011;39007;53.090;6.074;2023-06-14T01:45:33;8.18;;;2.33;;
53108;SDS011;39007;53.090;6.074;2023-06-14T01:48:00;7.40;;;2.20;;
53108;SDS011;39007;53.090;6.074;2023-06-14T01:50:32;6.60;;;2.13;;
53108;SDS011;39007;53.090;6.074;2023-06-14T01:52:58;6.32;;;2.30;;
53108;SDS011;39007;53.090;6.074;2023-06-14T01:55:24;7.55;;;2.30;;
53108;SDS011;39007;53.090;6.074;2023-06-14T01:57:51;8.63;;;2.20;;
53108;SDS011;39007;53.090;6.074;2023-06-14T02:00:17;5.93;;;2.40;;
53108;SDS011;39007;53.090;6.074;2023-06-14T02:02:44;7.75;;;2.45;;
53108;SDS011;39007;53.090;6.074;2023-06-14T02:05:14;6.00;;;2.00;;
53108;SDS011;39007;53.090;6.074;2023-06-14T02:07:43;6.10;;;2.60;;
53108;SDS011;39007;53.090;6.074;2023-06-14T02:10:10;4.40;;;2.08;;
53108;SDS011;39007;53.090;6.074;2023-06-14T02:12:36;6.78;;;2.40;;
53108;SDS011;39007;53.090;6.074;2023-06-14T02:15:03;7.38;;;2.15;;
53108;SDS011;39007;53.090;6.074;2023-06-14T02:17:29;5.85;;;2.42;;
53108;SDS011;39007;53.090;6.074;2023-06-14T02:19:55;5.55;;;2.10;;
53108;SDS011;39007;53.090;6.074;2023-06-14T02:22:22;7.80;;;1.98;;
53108;SDS011;39007;53.090;6.074;2023-06-14T02:24:48;5.95;;;2.22;;
53108;SDS011;39007;53.090;6.074;2023-06-14T02:27:15;6.90;;;2.20;;
53108;SDS011;39007;53.090;6.074;2023-06-14T02:29:41;6.57;;;2.50;;
53108;SDS011;39007;53.090;6.074;2023-06-14T02:32:08;6.85;;;1.80;;
53108;SDS011;39007;53.090;6.074;2023-06-14T02:34:35;7.15;;;2.30;;
53108;SDS011;39007;53.090;6.074;2023-06-14T02:37:01;6.20;;;2.30;;
53108;SDS011;39007;53.090;6.074;2023-06-14T02:39:28;7.85;;;2.25;;
53108;SDS011;39007;53.090;6.074;2023-06-14T02:41:54;5.97;;;1.90;;
53108;SDS011;39007;53.090;6.074;2023-06-14T02:44:24;5.85;;;2.28;;
53108;SDS011;39007;53.090;6.074;2023-06-14T02:46:51;5.30;;;2.40;;
53108;SDS011;39007;53.090;6.074;2023-06-14T02:49:17;7.93;;;2.50;;
53108;SDS011;39007;53.090;6.074;2023-06-14T02:51:43;5.35;;;2.17;;
53108;SDS011;39007;53.090;6.074;2023-06-14T02:54:09;7.40;;;2.40;;
53108;SDS011;39007;53.090;6.074;2023-06-14T02:56:36;7.40;;;2.40;;
53108;SDS011;39007;53.090;6.074;2023-06-14T02:59:02;7.13;;;2.13;;
53108;SDS011;39007;53.090;6.074;2023-06-14T03:01:28;8.00;;;2.80;;
53108;SDS011;39007;53.090;6.074;2023-06-14T03:04:02;3.95;;;1.98;;
53108;SDS011;39007;53.090;6.074;2023-06-14T03:06:31;6.35;;;2.30;;
53108;SDS011;39007;53.090;6.074;2023-06-14T03:08:58;7.03;;;2.47;;
53108;SDS011;39007;53.090;6.074;2023-06-14T03:11:26;9.35;;;2.20;;
53108;SDS011;39007;53.090;6.074;2023-06-14T03:13:52;8.73;;;2.30;;
53108;SDS011;39007;53.090;6.074;2023-06-14T03:16:18;5.65;;;2.42;;
53108;SDS011;39007;53.090;6.074;2023-06-14T03:18:47;5.70;;;2.40;;
53108;SDS011;39007;53.090;6.074;2023-06-14T03:21:13;5.18;;;2.20;;
53108;SDS011;39007;53.090;6.074;2023-06-14T03:23:41;7.00;;;2.20;;
53108;SDS011;39007;53.090;6.074;2023-06-14T03:26:07;6.82;;;2.40;;
53108;SDS011;39007;53.090;6.074;2023-06-14T03:28:33;4.82;;;2.30;;
53108;SDS011;39007;53.090;6.074;2023-06-14T03:31:00;10.65;;;2.58;;
53108;SDS011;39007;53.090;6.074;2023-06-14T03:33:26;6.05;;;2.50;;
53108;SDS011;39007;53.090;6.074;2023-06-14T03:35:52;5.10;;;2.38;;
53108;SDS011;39007;53.090;6.074;2023-06-14T03:38:18;8.60;;;2.53;;
53108;SDS011;39007;53.090;6.074;2023-06-14T03:40:44;6.05;;;2.67;;
53108;SDS011;39007;53.090;6.074;2023-06-14T03:43:11;4.55;;;2.20;;
53108;SDS011;39007;53.090;6.074;2023-06-14T03:45:37;7.40;;;2.53;;
53108;SDS011;39007;53.090;6.074;2023-06-14T03:48:04;5.90;;;2.38;;
53108;SDS011;39007;53.090;6.074;2023-06-14T03:50:31;6.32;;;2.50;;
53108;SDS011;39007;53.090;6.074;2023-06-14T03:52:58;4.63;;;2.30;;
53108;SDS011;39007;53.090;6.074;2023-06-14T03:55:24;4.57;;;2.28;;
53108;SDS011;39007;53.090;6.074;2023-06-14T03:57:51;7.10;;;2.50;;
53108;SDS011;39007;53.090;6.074;2023-06-14T04:00:17;7.32;;;2.60;;
53108;SDS011;39007;53.090;6.074;2023-06-14T04:02:43;5.75;;;2.58;;
53108;SDS011;39007;53.090;6.074;2023-06-14T04:05:09;5.97;;;2.90;;
53108;SDS011;39007;53.090;6.074;2023-06-14T04:07:36;6.60;;;2.97;;
53108;SDS011;39007;53.090;6.074;2023-06-14T04:10:06;6.60;;;2.70;;
53108;SDS011;39007;53.090;6.074;2023-06-14T04:12:33;7.40;;;2.63;;
53108;SDS011;39007;53.090;6.074;2023-06-14T04:14:59;7.75;;;3.05;;
53108;SDS011;39007;53.090;6.074;2023-06-14T04:17:26;7.85;;;2.40;;
53108;SDS011;39007;53.090;6.074;2023-06-14T04:19:52;5.72;;;2.55;;
53108;SDS011;39007;53.090;6.074;2023-06-14T04:22:18;5.03;;;2.42;;
53108;SDS011;39007;53.090;6.074;2023-06-14T04:24:44;6.80;;;3.03;;
53108;SDS011;39007;53.090;6.074;2023-06-14T04:27:11;4.78;;;2.50;;
53108;SDS011;39007;53.090;6.074;2023-06-14T04:29:39;5.93;;;3.00;;
53108;SDS011;39007;53.090;6.074;2023-06-14T04:32:08;7.35;;;2.65;;
53108;SDS011;39007;53.090;6.074;2023-06-14T04:34:35;6.70;;;2.72;;
53108;SDS011;39007;53.090;6.074;2023-06-14T04:37:02;6.28;;;2.85;;
53108;SDS011;39007;53.090;6.074;2023-06-14T04:39:29;9.20;;;3.25;;
53108;SDS011;39007;53.090;6.074;2023-06-14T04:41:55;8.43;;;3.15;;
53108;SDS011;39007;53.090;6.074;2023-06-14T04:44:23;8.73;;;3.10;;
53108;SDS011;39007;53.090;6.074;2023-06-14T04:46:59;8.73;;;3.00;;
53108;SDS011;39007;53.090;6.074;2023-06-14T04:49:25;8.52;;;3.00;;
53108;SDS011;39007;53.090;6.074;2023-06-14T04:51:52;6.43;;;3.22;;
53108;SDS011;39007;53.090;6.074;2023-06-14T04:54:22;6.82;;;2.90;;
53108;SDS011;39007;53.090;6.074;2023-06-14T04:56:50;9.88;;;3.33;;
53108;SDS011;39007;53.090;6.074;2023-06-14T04:59:18;8.27;;;2.97;;
53108;SDS011;39007;53.090;6.074;2023-06-14T05:01:44;6.03;;;3.00;;
53108;SDS011;39007;53.090;6.074;2023-06-14T05:04:16;13.15;;;4.43;;
53108;SDS011;39007;53.090;6.074;2023-06-14T05:06:42;6.80;;;3.13;;
53108;SDS011;39007;53.090;6.074;2023-06-14T05:09:10;7.30;;;3.22;;
53108;SDS011;39007;53.090;6.074;2023-06-14T05:11:36;9.38;;;3.28;;
53108;SDS011;39007;53.090;6.074;2023-06-14T05:14:02;6.78;;;3.00;;
53108;SDS011;39007;53.090;6.074;2023-06-14T05:16:28;7.18;;;3.50;;
53108;SDS011;39007;53.090;6.074;2023-06-14T05:18:55;6.65;;;3.10;;
53108;SDS011;39007;53.090;6.074;2023-06-14T05:21:21;7.78;;;3.00;;
53108;SDS011;39007;53.090;6.074;2023-06-14T05:23:47;7.30;;;3.08;;
53108;SDS011;39007;53.090;6.074;2023-06-14T05:26:14;8.05;;;3.20;;
53108;SDS011;39007;53.090;6.074;2023-06-14T05:28:40;8.05;;;2.90;;
53108;SDS011;39007;53.090;6.074;2023-06-14T05:31:06;8.02;;;3.13;;
53108;SDS011;39007;53.090;6.074;2023-06-14T05:33:32;6.97;;;2.92;;
53108;SDS011;39007;53.090;6.074;2023-06-14T05:35:58;8.77;;;3.10;;
53108;SDS011;39007;53.090;6.074;2023-06-14T05:38:24;9.13;;;3.20;;
53108;SDS011;39007;53.090;6.074;2023-06-14T05:40:50;8.57;;;3.20;;
53108;SDS011;39007;53.090;6.074;2023-06-14T05:43:17;6.68;;;3.25;;
53108;SDS011;39007;53.090;6.074;2023-06-14T05:45:43;6.28;;;3.10;;
53108;SDS011;39007;53.090;6.074;2023-06-14T05:48:09;8.85;;;3.20;;
53108;SDS011;39007;53.090;6.074;2023-06-14T05:50:35;8.90;;;4.45;;
53108;SDS011;39007;53.090;6.074;2023-06-14T05:53:01;11.07;;;3.40;;
53108;SDS011;39007;53.090;6.074;2023-06-14T05:55:27;7.03;;;3.10;;
53108;SDS011;39007;53.090;6.074;2023-06-14T05:57:54;6.53;;;3.00;;
53108;SDS011;39007;53.090;6.074;2023-06-14T06:00:20;9.00;;;3.25;;
53108;SDS011;39007;53.090;6.074;2023-06-14T06:02:46;7.13;;;3.35;;
53108;SDS011;39007;53.090;6.074;2023-06-14T06:05:12;5.53;;;3.20;;
53108;SDS011;39007;53.090;6.074;2023-06-14T06:07:40;5.55;;;2.65;;
53108;SDS011;39007;53.090;6.074;2023-06-14T06:10:06;7.47;;;3.00;;
53108;SDS011;39007;53.090;6.074;2023-06-14T06:12:33;9.07;;;2.97;;
53108;SDS011;39007;53.090;6.074;2023-06-14T06:14:59;7.47;;;3.47;;
53108;SDS011;39007;53.090;6.074;2023-06-14T06:17:26;5.95;;;2.92;;
53108;SDS011;39007;53.090;6.074;2023-06-14T06:19:52;8.77;;;3.13;;
53108;SDS011;39007;53.090;6.074;2023-06-14T06:22:18;8.68;;;2.90;;
53108;SDS011;39007;53.090;6.074;2023-06-14T06:24:44;12.00;;;3.10;;
53108;SDS011;39007;53.090;6.074;2023-06-14T06:27:11;7.57;;;3.08;;
53108;SDS011;39007;53.090;6.074;2023-06-14T06:29:37;10.73;;;3.10;;
53108;SDS011;39007;53.090;6.074;2023-06-14T06:32:04;6.55;;;2.75;;
53108;SDS011;39007;53.090;6.074;2023-06-14T06:34:30;11.93;;;3.13;;
53108;SDS011;39007;53.090;6.074;2023-06-14T06:36:56;7.93;;;2.78;;
53108;SDS011;39007;53.090;6.074;2023-06-14T06:39:22;6.57;;;2.80;;
53108;SDS011;39007;53.090;6.074;2023-06-14T06:41:48;7.65;;;2.97;;
53108;SDS011;39007;53.090;6.074;2023-06-14T06:44:14;11.07;;;2.90;;
53108;SDS011;39007;53.090;6.074;2023-06-14T06:46:41;4.80;;;2.50;;
53108;SDS011;39007;53.090;6.074;2023-06-14T06:49:08;7.00;;;2.63;;
53108;SDS011;39007;53.090;6.074;2023-06-14T06:51:34;7.97;;;2.90;;
53108;SDS011;39007;53.090;6.074;2023-06-14T06:54:04;8.18;;;2.63;;
53108;SDS011;39007;53.090;6.074;2023-06-14T06:56:31;8.60;;;2.45;;
53108;SDS011;39007;53.090;6.074;2023-06-14T06:58:57;8.40;;;2.58;;
53108;SDS011;39007;53.090;6.074;2023-06-14T07:01:23;6.25;;;2.30;;
53108;SDS011;39007;53.090;6.074;2023-06-14T07:03:49;7.40;;;2.58;;
53108;SDS011;39007;53.090;6.074;2023-06-14T07:06:15;6.85;;;2.42;;
53108;SDS011;39007;53.090;6.074;2023-06-14T07:08:43;11.63;;;2.42;;
53108;SDS011;39007;53.090;6.074;2023-06-14T07:11:10;6.47;;;2.42;;
53108;SDS011;39007;53.090;6.074;2023-06-14T07:13:36;4.68;;;2.45;;
53108;SDS011;39007;53.090;6.074;2023-06-14T07:16:03;6.72;;;2.30;;
53108;SDS011;39007;53.090;6.074;2023-06-14T07:18:30;7.53;;;2.40;;
53108;SDS011;39007;53.090;6.074;2023-06-14T07:20:56;7.72;;;2.20;;
53108;SDS011;39007;53.090;6.074;2023-06-14T07:23:23;6.05;;;2.50;;
53108;SDS011;39007;53.090;6.074;2023-06-14T07:25:49;6.53;;;2.17;;
53108;SDS011;39007;53.090;6.074;2023-06-14T07:28:16;10.23;;;2.40;;
53108;SDS011;39007;53.090;6.074;2023-06-14T07:30:43;6.75;;;2.35;;
53108;SDS011;39007;53.090;6.074;2023-06-14T07:33:09;6.03;;;2.53;;
53108;SDS011;39007;53.090;6.074;2023-06-14T07:35:37;6.72;;;2.33;;
53108;SDS011;39007;53.090;6.074;2023-06-14T07:38:03;9.77;;;2.35;;
53108;SDS011;39007;53.090;6.074;2023-06-14T07:40:29;8.65;;;2.50;;
53108;SDS011;39007;53.090;6.074;2023-06-14T07:42:55;7.65;;;2.47;;
53108;SDS011;39007;53.090;6.074;2023-06-14T07:45:21;5.70;;;2.45;;
53108;SDS011;39007;53.090;6.074;2023-06-14T07:47:47;5.05;;;2.33;;
53108;SDS011;39007;53.090;6.074;2023-06-14T07:50:13;4.88;;;2.38;;
53108;SDS011;39007;53.090;6.074;2023-06-14T07:52:39;6.28;;;2.45;;
53108;SDS011;39007;53.090;6.074;2023-06-14T07:55:06;6.20;;;2.65;;
53108;SDS011;39007;53.090;6.074;2023-06-14T07:57:32;7.45;;;2.15;;
53108;SDS011;39007;53.090;6.074;2023-06-14T07:59:58;5.72;;;2.40;;
53108;SDS011;39007;53.090;6.074;2023-06-14T08:02:24;8.07;;;2.60;;
53108;SDS011;39007;53.090;6.074;2023-06-14T08:04:50;4.45;;;2.35;;
53108;SDS011;39007;53.090;6.074;2023-06-14T08:07:16;5.88;;;2.40;;
53108;SDS011;39007;53.090;6.074;2023-06-14T08:09:42;8.90;;;2.35;;
53108;SDS011;39007;53.090;6.074;2023-06-14T08:12:08;10.38;;;2.40;;
53108;SDS011;39007;53.090;6.074;2023-06-14T08:14:38;5.47;;;2.30;;
53108;SDS011;39007;53.090;6.074;2023-06-14T08:17:05;9.48;;;2.50;;
53108;SDS011;39007;53.090;6.074;2023-06-14T08:19:31;6.15;;;2.30;;
53108;SDS011;39007;53.090;6.074;2023-06-14T08:21:57;5.07;;;2.10;;
53108;SDS011;39007;53.090;6.074;2023-06-14T08:24:23;7.80;;;2.40;;
53108;SDS011;39007;53.090;6.074;2023-06-14T08:26:52;7.38;;;2.88;;
53108;SDS011;39007;53.090;6.074;2023-06-14T08:29:18;9.93;;;2.50;;
53108;SDS011;39007;53.090;6.074;2023-06-14T08:31:45;8.95;;;2.50;;
53108;SDS011;39007;53.090;6.074;2023-06-14T08:34:11;5.30;;;2.40;;
53108;SDS011;39007;53.090;6.074;2023-06-14T08:36:37;9.35;;;2.47;;
53108;SDS011;39007;53.090;6.074;2023-06-14T08:39:03;5.10;;;2.22;;
53108;SDS011;39007;53.090;6.074;2023-06-14T08:41:29;6.97;;;2.50;;
53108;SDS011;39007;53.090;6.074;2023-06-14T08:43:56;8.15;;;2.47;;
53108;SDS011;39007;53.090;6.074;2023-06-14T08:46:25;8.85;;;2.28;;
53108;SDS011;39007;53.090;6.074;2023-06-14T08:48:52;8.20;;;2.70;;
53108;SDS011;39007;53.090;6.074;2023-06-14T08:51:22;7.20;;;2.30;;
53108;SDS011;39007;53.090;6.074;2023-06-14T08:53:52;8.38;;;2.10;;
53108;SDS011;39007;53.090;6.074;2023-06-14T08:56:18;5.57;;;2.40;;
53108;SDS011;39007;53.090;6.074;2023-06-14T08:58:45;7.05;;;2.00;;
53108;SDS011;39007;53.090;6.074;2023-06-14T09:01:13;5.72;;;2.40;;
53108;SDS011;39007;53.090;6.074;2023-06-14T09:03:41;5.70;;;2.38;;
53108;SDS011;39007;53.090;6.074;2023-06-14T09:06:08;9.70;;;2.30;;
53108;SDS011;39007;53.090;6.074;2023-06-14T09:08:40;7.05;;;2.30;;
53108;SDS011;39007;53.090;6.074;2023-06-14T09:11:06;5.15;;;2.30;;
53108;SDS011;39007;53.090;6.074;2023-06-14T09:13:32;6.03;;;2.25;;
53108;SDS011;39007;53.090;6.074;2023-06-14T09:15:59;6.65;;;2.33;;
53108;SDS011;39007;53.090;6.074;2023-06-14T09:18:39;11.65;;;2.50;;
53108;SDS011;39007;53.090;6.074;2023-06-14T09:21:06;6.70;;;2.00;;
53108;SDS011;39007;53.090;6.074;2023-06-14T09:23:33;7.00;;;2.53;;
53108;SDS011;39007;53.090;6.074;2023-06-14T09:26:06;5.53;;;2.20;;
53108;SDS011;39007;53.090;6.074;2023-06-14T09:28:32;6.95;;;2.10;;
53108;SDS011;39007;53.090;6.074;2023-06-14T09:31:00;4.95;;;2.25;;
53108;SDS011;39007;53.090;6.074;2023-06-14T09:33:26;5.18;;;2.05;;
53108;SDS011;39007;53.090;6.074;2023-06-14T09:35:53;8.43;;;2.13;;
53108;SDS011;39007;53.090;6.074;2023-06-14T09:38:20;9.52;;;2.30;;
53108;SDS011;39007;53.090;6.074;2023-06-14T09:40:46;7.18;;;1.95;;
53108;SDS011;39007;53.090;6.074;2023-06-14T09:43:12;9.63;;;2.30;;
53108;SDS011;39007;53.090;6.074;2023-06-14T09:45:38;6.75;;;2.33;;
53108;SDS011;39007;53.090;6.074;2023-06-14T09:48:06;6.38;;;2.20;;
53108;SDS011;39007;53.090;6.074;2023-06-14T09:50:33;8.80;;;2.17;;
53108;SDS011;39007;53.090;6.074;2023-06-14T09:53:03;8.38;;;2.42;;
53108;SDS011;39007;53.090;6.074;2023-06-14T09:55:31;9.63;;;2.65;;
53108;SDS011;39007;53.090;6.074;2023-06-14T09:58:00;8.10;;;2.70;;
53108;SDS011;39007;53.090;6.074;2023-06-14T10:00:28;6.15;;;2.10;;
53108;SDS011;39007;53.090;6.074;2023-06-14T10:02:57;5.95;;;2.30;;
53108;SDS011;39007;53.090;6.074;2023-06-14T10:05:25;7.90;;;2.30;;
53108;SDS011;39007;53.090;6.074;2023-06-14T10:07:56;7.75;;;1.95;;
53108;SDS011;39007;53.090;6.074;2023-06-14T10:10:24;8.32;;;2.33;;
53108;SDS011;39007;53.090;6.074;2023-06-14T10:12:51;6.07;;;2.20;;
53108;SDS011;39007;53.090;6.074;2023-06-14T10:15:22;8.88;;;2.50;;
53108;SDS011;39007;53.090;6.074;2023-06-14T10:17:54;6.13;;;2.30;;
53108;SDS011;39007;53.090;6.074;2023-06-14T10:20:27;9.25;;;2.28;;
53108;SDS011;39007;53.090;6.074;2023-06-14T10:23:37;9.00;;;2.50;;
53108;SDS011;39007;53.090;6.074;2023-06-14T10:25:44;8.98;;;2.30;;
53108;SDS011;39007;53.090;6.074;2023-06-14T10:30:39;7.75;;;2.58;;
53108;SDS011;39007;53.090;6.074;2023-06-14T10:33:06;7.65;;;2.42;;
53108;SDS011;39007;53.090;6.074;2023-06-14T10:35:32;7.25;;;2.38;;
53108;SDS011;39007;53.090;6.074;2023-06-14T10:38:08;5.65;;;2.00;;
53108;SDS011;39007;53.090;6.074;2023-06-14T10:40:35;7.05;;;2.42;;
53108;SDS011;39007;53.090;6.074;2023-06-14T10:43:15;4.60;;;2.22;;
53108;SDS011;39007;53.090;6.074;2023-06-14T10:48:31;6.90;;;2.28;;
53108;SDS011;39007;53.090;6.074;2023-06-14T10:51:00;6.13;;;2.22;;
53108;SDS011;39007;53.090;6.074;2023-06-14T10:53:27;5.82;;;2.22;;
53108;SDS011;39007;53.090;6.074;2023-06-14T10:55:53;8.25;;;2.45;;
53108;SDS011;39007;53.090;6.074;2023-06-14T10:58:22;5.03;;;2.15;;
53108;SDS011;39007;53.090;6.074;2023-06-14T11:00:48;5.60;;;2.35;;
53108;SDS011;39007;53.090;6.074;2023-06-14T11:10:50;5.88;;;2.13;;
53108;SDS011;39007;53.090;6.074;2023-06-14T11:13:16;6.63;;;2.38;;
53108;SDS011;39007;53.090;6.074;2023-06-14T11:15:46;7.95;;;2.28;;
53108;SDS011;39007;53.090;6.074;2023-06-14T11:18:12;4.10;;;2.13;;
53108;SDS011;39007;53.090;6.074;2023-06-14T11:20:39;7.35;;;2.10;;
53108;SDS011;39007;53.090;6.074;2023-06-14T11:23:05;8.75;;;2.30;;
53108;SDS011;39007;53.090;6.074;2023-06-14T11:25:32;8.05;;;2.10;;
53108;SDS011;39007;53.090;6.074;2023-06-14T11:27:58;8.55;;;2.38;;
53108;SDS011;39007;53.090;6.074;2023-06-14T11:30:25;7.30;;;2.35;;
53108;SDS011;39007;53.090;6.074;2023-06-14T11:32:52;7.97;;;2.40;;
53108;SDS011;39007;53.090;6.074;2023-06-14T11:35:18;8.82;;;2.00;;
53108;SDS011;39007;53.090;6.074;2023-06-14T11:37:45;6.95;;;2.15;;
53108;SDS011;39007;53.090;6.074;2023-06-14T11:40:12;5.85;;;2.40;;
53108;SDS011;39007;53.090;6.074;2023-06-14T11:42:40;5.28;;;2.20;;
53108;SDS011;39007;53.090;6.074;2023-06-14T11:45:10;8.43;;;2.38;;
53108;SDS011;39007;53.090;6.074;2023-06-14T11:47:37;14.63;;;2.00;;
53108;SDS011;39007;53.090;6.074;2023-06-14T11:50:04;5.28;;;2.10;;
53108;SDS011;39007;53.090;6.074;2023-06-14T11:52:31;6.47;;;2.10;;
53108;SDS011;39007;53.090;6.074;2023-06-14T11:54:57;5.00;;;2.03;;
53108;SDS011;39007;53.090;6.074;2023-06-14T11:57:24;6.85;;;2.00;;
53108;SDS011;39007;53.090;6.074;2023-06-14T11:59:50;4.43;;;2.00;;
53108;SDS011;39007;53.090;6.074;2023-06-14T12:02:16;6.45;;;2.20;;
53108;SDS011;39007;53.090;6.074;2023-06-14T12:04:43;10.05;;;1.63;;
53108;SDS011;39007;53.090;6.074;2023-06-14T12:07:10;7.50;;;2.15;;
53108;SDS011;39007;53.090;6.074;2023-06-14T12:09:39;4.32;;;2.03;;
53108;SDS011;39007;53.090;6.074;2023-06-14T12:12:05;6.15;;;1.88;;
53108;SDS011;39007;53.090;6.074;2023-06-14T12:14:31;7.72;;;2.25;;
53108;SDS011;39007;53.090;6.074;2023-06-14T12:17:04;5.63;;;1.83;;
53108;SDS011;39007;53.090;6.074;2023-06-14T12:19:31;8.52;;;2.28;;
53108;SDS011;39007;53.090;6.074;2023-06-14T12:22:00;3.58;;;1.73;;
53108;SDS011;39007;53.090;6.074;2023-06-14T12:24:30;3.88;;;1.80;;
53108;SDS011;39007;53.090;6.074;2023-06-14T12:26:59;4.50;;;1.80;;
53108;SDS011;39007;53.090;6.074;2023-06-14T12:29:25;3.83;;;1.80;;
53108;SDS011;39007;53.090;6.074;2023-06-14T12:31:51;4.43;;;1.70;;
53108;SDS011;39007;53.090;6.074;2023-06-14T12:34:19;5.03;;;1.65;;
53108;SDS011;39007;53.090;6.074;2023-06-14T12:36:45;3.55;;;1.90;;
53108;SDS011;39007;53.090;6.074;2023-06-14T12:39:12;5.20;;;1.58;;
53108;SDS011;39007;53.090;6.074;2023-06-14T12:41:38;4.53;;;1.70;;
53108;SDS011;39007;53.090;6.074;2023-06-14T12:44:06;9.60;;;1.88;;
53108;SDS011;39007;53.090;6.074;2023-06-14T12:46:33;2.95;;;1.50;;
53108;SDS011;39007;53.090;6.074;2023-06-14T12:49:00;4.22;;;1.70;;
53108;SDS011;39007;53.090;6.074;2023-06-14T12:51:26;5.78;;;1.63;;
53108;SDS011;39007;53.090;6.074;2023-06-14T12:53:52;4.20;;;1.92;;
53108;SDS011;39007;53.090;6.074;2023-06-14T12:56:18;4.75;;;1.52;;
53108;SDS011;39007;53.090;6.074;2023-06-14T12:58:44;6.97;;;1.88;;
53108;SDS011;39007;53.090;6.074;2023-06-14T13:01:10;9.00;;;1.88;;
53108;SDS011;39007;53.090;6.074;2023-06-14T13:03:36;9.48;;;1.70;;
53108;SDS011;39007;53.090;6.074;2023-06-14T13:06:02;9.05;;;2.00;;
53108;SDS011;39007;53.090;6.074;2023-06-14T13:08:29;6.28;;;2.00;;
53108;SDS011;39007;53.090;6.074;2023-06-14T13:10:56;5.18;;;1.60;;
53108;SDS011;39007;53.090;6.074;2023-06-14T13:13:22;7.22;;;1.90;;
53108;SDS011;39007;53.090;6.074;2023-06-14T13:15:48;5.03;;;1.80;;
53108;SDS011;39007;53.090;6.074;2023-06-14T13:18:15;3.40;;;1.73;;
53108;SDS011;39007;53.090;6.074;2023-06-14T13:20:42;6.20;;;1.80;;
53108;SDS011;39007;53.090;6.074;2023-06-14T13:23:08;3.20;;;1.70;;
53108;SDS011;39007;53.090;6.074;2023-06-14T13:25:35;5.15;;;1.70;;
53108;SDS011;39007;53.090;6.074;2023-06-14T13:28:02;3.90;;;1.75;;
53108;SDS011;39007;53.090;6.074;2023-06-14T13:30:28;5.38;;;1.90;;
53108;SDS011;39007;53.090;6.074;2023-06-14T13:32:54;5.55;;;1.60;;
53108;SDS011;39007;53.090;6.074;2023-06-14T13:35:21;5.05;;;1.58;;
53108;SDS011;39007;53.090;6.074;2023-06-14T13:37:47;5.18;;;1.75;;
53108;SDS011;39007;53.090;6.074;2023-06-14T13:40:13;6.07;;;1.73;;
53108;SDS011;39007;53.090;6.074;2023-06-14T13:42:39;3.63;;;1.70;;
53108;SDS011;39007;53.090;6.074;2023-06-14T13:45:05;6.20;;;1.90;;
53108;SDS011;39007;53.090;6.074;2023-06-14T13:47:32;6.40;;;1.90;;
53108;SDS011;39007;53.090;6.074;2023-06-14T13:49:58;4.55;;;1.92;;
53108;SDS011;39007;53.090;6.074;2023-06-14T13:52:24;4.03;;;1.80;;
53108;SDS011;39007;53.090;6.074;2023-06-14T13:54:51;6.93;;;1.60;;
53108;SDS011;39007;53.090;6.074;2023-06-14T13:57:17;4.95;;;1.90;;
53108;SDS011;39007;53.090;6.074;2023-06-14T13:59:43;4.97;;;1.75;;
53108;SDS011;39007;53.090;6.074;2023-06-14T14:02:10;8.77;;;1.80;;
53108;SDS011;39007;53.090;6.074;2023-06-14T14:04:37;4.15;;;1.90;;
53108;SDS011;39007;53.090;6.074;2023-06-14T14:07:04;7.15;;;1.70;;
53108;SDS011;39007;53.090;6.074;2023-06-14T14:09:30;5.35;;;1.70;;
53108;SDS011;39007;53.090;6.074;2023-06-14T14:11:57;3.78;;;1.83;;
53108;SDS011;39007;53.090;6.074;2023-06-14T14:14:23;4.47;;;1.75;;
53108;SDS011;39007;53.090;6.074;2023-06-14T14:16:49;5.97;;;2.15;;
53108;SDS011;39007;53.090;6.074;2023-06-14T14:19:20;6.43;;;1.88;;
53108;SDS011;39007;53.090;6.074;2023-06-14T14:21:47;4.65;;;1.80;;
53108;SDS011;39007;53.090;6.074;2023-06-14T14:24:13;3.92;;;1.70;;
53108;SDS011;39007;53.090;6.074;2023-06-14T14:26:39;10.35;;;2.10;;
53108;SDS011;39007;53.090;6.074;2023-06-14T14:29:05;5.93;;;1.90;;
53108;SDS011;39007;53.090;6.074;2023-06-14T14:31:31;3.70;;;1.90;;
53108;SDS011;39007;53.090;6.074;2023-06-14T14:33:59;4.05;;;1.52;;
53108;SDS011;39007;53.090;6.074;2023-06-14T14:36:25;4.82;;;1.80;;
53108;SDS011;39007;53.090;6.074;2023-06-14T14:38:51;3.65;;;1.83;;
53108;SDS011;39007;53.090;6.074;2023-06-14T14:41:17;6.05;;;1.92;;
53108;SDS011;39007;53.090;6.074;2023-06-14T14:43:43;5.15;;;2.20;;
53108;SDS011;39007;53.090;6.074;2023-06-14T14:46:09;7.32;;;1.80;;
53108;SDS011;39007;53.090;6.074;2023-06-14T14:48:35;4.65;;;1.73;;
53108;SDS011;39007;53.090;6.074;2023-06-14T14:51:01;6.95;;;1.77;;
53108;SDS011;39007;53.090;6.074;2023-06-14T14:53:28;7.95;;;2.10;;
53108;SDS011;39007;53.090;6.074;2023-06-14T14:55:54;7.95;;;2.03;;
53108;SDS011;39007;53.090;6.074;2023-06-14T14:58:20;5.05;;;1.90;;
53108;SDS011;39007;53.090;6.074;2023-06-14T15:00:47;5.82;;;2.10;;
53108;SDS011;39007;53.090;6.074;2023-06-14T15:03:13;4.65;;;2.17;;